Time;durP1;ratioP1;P1;durP2;ratioP2;P2;SDS_P1;SDS_P2;PMS_P1;PMS_P2;Temp;Humidity;BMP_temperature;BMP_pressure;BME280_temperature;BME280_humidity;BME280_pressure;Samples;Min_cycle;Max_cycle;Signal;HPM_P1;HPM_P2
2022/07/09 00:00:27;;;;;;;4.20;2.43;;;13.00;99.90;;;;;;5117515;28;20735;-86
2022/07/09 00:02:53;;;;;;;6.00;2.83;;;;;;;;;;5116562;28;20228;-86
2022/07/09 00:05:19;;;;;;;3.40;2.33;;;12.90;99.90;;;;;;5117745;28;20188;-86
2022/07/09 00:07:45;;;;;;;2.80;2.37;;;;;;;;;;5117311;28;20544;-86
2022/07/09 00:10:11;;;;;;;11.50;2.70;;;12.90;99.90;;;;;;5118541;28;20673;-86
2022/07/09 00:12:37;;;;;;;4.80;2.80;;;12.80;99.90;;;;;;5116860;28;20198;-86
2022/07/09 00:15:22;;;;;;;7.73;2.70;;;12.80;99.90;;;;;;5118146;28;20171;-87
2022/07/09 00:17:48;;;;;;;8.37;2.77;;;12.70;99.90;;;;;;5116367;28;20167;-87
2022/07/09 00:20:13;;;;;;;4.93;2.60;;;12.70;99.90;;;;;;5117757;28;20181;-87
2022/07/09 00:22:39;;;;;;;8.90;2.87;;;12.70;99.90;;;;;;5117258;28;20250;-87
2022/07/09 00:25:05;;;;;;;6.43;2.50;;;12.60;99.90;;;;;;5116400;28;20270;-87
2022/07/09 00:27:31;;;;;;;7.47;2.73;;;12.60;99.90;;;;;;5117302;28;20176;-87
2022/07/09 00:29:56;;;;;;;7.33;2.97;;;12.60;99.90;;;;;;5119115;28;20225;-87
2022/07/09 00:32:22;;;;;;;8.77;3.00;;;12.50;99.90;;;;;;5119321;28;20588;-87
2022/07/09 00:34:48;;;;;;;4.80;2.80;;;;;;;;;;5120010;28;20180;-87
2022/07/09 00:37:13;;;;;;;7.93;3.10;;;12.40;99.90;;;;;;5119790;28;20176;-87
2022/07/09 00:39:39;;;;;;;5.30;2.90;;;12.50;99.90;;;;;;5119339;28;20190;-87
2022/07/09 00:42:06;;;;;;;5.00;2.97;;;12.30;99.90;;;;;;5121130;28;20287;-87
2022/07/09 00:44:33;;;;;;;6.77;3.00;;;12.30;99.90;;;;;;5120175;28;20623;-87
2022/07/09 00:46:58;;;;;;;5.73;2.77;;;12.30;99.90;;;;;;5120539;28;20578;-87
2022/07/09 00:49:29;;;;;;;2.70;2.40;;;12.20;99.90;;;;;;5121571;28;20201;-87
2022/07/09 00:51:56;;;;;;;4.77;3.10;;;12.20;99.90;;;;;;5122298;28;20226;-87
2022/07/09 00:54:23;;;;;;;3.90;2.70;;;12.20;99.90;;;;;;5120267;28;20667;-86
2022/07/09 00:56:50;;;;;;;4.47;2.83;;;12.10;99.90;;;;;;5119959;28;20187;-87
2022/07/09 00:59:17;;;;;;;5.63;3.10;;;12.10;99.90;;;;;;5119996;28;20248;-87
2022/07/09 01:01:43;;;;;;;4.90;3.10;;;12.20;99.90;;;;;;5122053;28;20510;-86
2022/07/09 01:04:09;;;;;;;6.60;2.87;;;;;;;;;;5121138;28;20218;-87
2022/07/09 01:06:35;;;;;;;7.20;2.83;;;12.20;99.90;;;;;;5120453;28;20171;-87
2022/07/09 01:09:04;;;;;;;4.10;3.00;;;12.20;99.90;;;;;;5122346;28;20217;-87
2022/07/09 01:11:30;;;;;;;4.47;2.87;;;12.20;99.90;;;;;;5121591;28;20180;-86
2022/07/09 01:13:56;;;;;;;5.23;2.70;;;12.10;99.90;;;;;;5120102;28;20179;-87
2022/07/09 01:16:29;;;;;;;10.73;3.93;;;12.10;99.90;;;;;;5122471;28;20198;-87
2022/07/09 01:18:55;;;;;;;8.87;3.43;;;12.10;99.90;;;;;;5122141;28;20176;-87
2022/07/09 01:21:21;;;;;;;6.63;3.33;;;12.00;99.90;;;;;;5121722;28;20282;-87
2022/07/09 01:23:46;;;;;;;4.73;3.23;;;12.00;99.90;;;;;;5122520;28;20214;-87
2022/07/09 01:26:12;;;;;;;7.90;3.40;;;12.00;99.90;;;;;;5123389;28;20258;-87
2022/07/09 01:28:38;;;;;;;6.07;3.37;;;12.00;99.90;;;;;;5122595;28;20170;-87
2022/07/09 01:31:03;;;;;;;3.37;3.00;;;12.00;99.90;;;;;;5123247;28;20174;-86
2022/07/09 01:33:31;;;;;;;5.93;2.93;;;11.90;99.90;;;;;;5124554;28;20196;-87
2022/07/09 01:35:57;;;;;;;4.90;3.40;;;12.00;99.90;;;;;;5124449;28;20182;-87
2022/07/09 01:38:23;;;;;;;4.80;2.70;;;11.90;99.90;;;;;;5123558;28;20275;-87
2022/07/09 01:40:48;;;;;;;4.47;3.07;;;11.90;99.90;;;;;;5123887;28;20204;-87
2022/07/09 01:43:14;;;;;;;4.87;3.27;;;11.90;99.90;;;;;;5125012;28;20203;-87
2022/07/09 01:45:40;;;;;;;6.20;3.30;;;11.90;99.90;;;;;;5132073;28;20235;-87
2022/07/09 01:48:06;;;;;;;5.40;3.20;;;11.90;99.90;;;;;;5138755;28;20186;-86
2022/07/09 01:50:32;;;;;;;5.13;3.13;;;11.90;99.90;;;;;;5137546;28;20166;-86
2022/07/09 01:52:57;;;;;;;4.83;3.17;;;11.80;99.90;;;;;;5128817;28;20229;-87
2022/07/09 01:55:23;;;;;;;7.57;2.90;;;11.80;99.90;;;;;;5119435;28;20178;-87
2022/07/09 01:57:49;;;;;;;4.20;2.80;;;11.70;99.90;;;;;;5118905;28;20184;-87
2022/07/09 02:00:15;;;;;;;4.10;3.00;;;11.70;99.90;;;;;;5121862;28;20179;-87
2022/07/09 02:02:40;;;;;;;3.70;3.23;;;11.60;99.90;;;;;;5119501;28;20211;-87
2022/07/09 02:05:06;;;;;;;6.60;2.97;;;11.60;99.90;;;;;;5119872;28;20182;-86
2022/07/09 02:07:32;;;;;;;5.53;3.40;;;11.60;99.90;;;;;;5120588;28;20175;-87
2022/07/09 02:09:58;;;;;;;5.87;3.43;;;11.60;99.90;;;;;;5120635;28;20250;-87
2022/07/09 02:12:24;;;;;;;5.07;3.20;;;11.60;99.90;;;;;;5120885;28;20306;-87
2022/07/09 02:14:49;;;;;;;3.07;2.77;;;11.60;99.90;;;;;;5120198;28;20207;-87
2022/07/09 02:17:15;;;;;;;4.73;3.00;;;11.60;99.90;;;;;;5120477;28;20637;-87
2022/07/09 02:19:41;;;;;;;4.73;3.13;;;11.60;99.90;;;;;;5121385;28;20200;-87
2022/07/09 02:22:07;;;;;;;5.70;3.17;;;11.50;99.90;;;;;;5122278;28;20199;-87
2022/07/09 02:24:33;;;;;;;5.40;3.10;;;;;;;;;;5121891;28;20230;-87
2022/07/09 02:26:58;;;;;;;6.70;3.63;;;11.40;99.90;;;;;;5122959;28;20632;-87
2022/07/09 02:29:24;;;;;;;6.03;3.10;;;;;;;;;;5132329;28;20168;-86
2022/07/09 02:31:50;;;;;;;4.33;3.13;;;11.40;99.90;;;;;;5137233;28;20179;-86
2022/07/09 02:34:16;;;;;;;5.00;3.70;;;11.30;99.90;;;;;;5123344;28;20188;-86
2022/07/09 02:36:42;;;;;;;5.00;3.90;;;11.30;99.90;;;;;;5114593;28;20520;-87
2022/07/09 02:39:07;;;;;;;4.03;3.57;;;11.30;99.90;;;;;;5113885;28;20213;-86
2022/07/09 02:41:33;;;;;;;5.73;3.87;;;11.20;99.90;;;;;;5113778;28;20186;-86
2022/07/09 02:43:58;;;;;;;4.23;3.57;;;11.20;99.90;;;;;;5113661;28;20298;-87
2022/07/09 02:46:24;;;;;;;5.67;3.40;;;11.20;99.90;;;;;;5113618;28;20172;-86
2022/07/09 02:48:50;;;;;;;6.43;4.43;;;11.20;99.90;;;;;;5113267;28;20711;-87
2022/07/09 02:51:15;;;;;;;6.60;3.70;;;11.10;99.90;;;;;;5114083;28;20173;-87
2022/07/09 02:53:41;;;;;;;4.27;3.57;;;11.10;99.90;;;;;;5114390;28;20202;-87
2022/07/09 02:56:07;;;;;;;4.80;3.60;;;11.00;99.90;;;;;;5116762;28;20177;-87
2022/07/09 02:58:32;;;;;;;4.80;3.87;;;11.00;99.90;;;;;;5119550;28;20171;-86
2022/07/09 03:00:59;;;;;;;4.73;3.50;;;10.90;99.90;;;;;;5118818;28;20176;-87
2022/07/09 03:03:26;;;;;;;4.63;3.77;;;10.90;99.90;;;;;;5119708;28;20198;-87
2022/07/09 03:05:52;;;;;;;7.93;3.50;;;10.90;99.90;;;;;;5117704;28;20259;-87
2022/07/09 03:08:21;;;;;;;6.07;3.40;;;10.80;99.90;;;;;;5118024;28;20226;-87
2022/07/09 03:10:48;;;;;;;4.80;3.20;;;10.80;99.90;;;;;;5118161;28;20175;-87
2022/07/09 03:13:14;;;;;;;9.03;3.90;;;10.80;99.90;;;;;;5118070;28;20205;-87
2022/07/09 03:15:39;;;;;;;3.93;3.13;;;10.80;99.90;;;;;;5118565;28;20265;-87
2022/07/09 03:18:08;;;;;;;3.50;3.20;;;10.70;99.90;;;;;;5119273;28;20637;-87
2022/07/09 03:20:36;;;;;;;6.83;3.50;;;10.70;99.90;;;;;;5119250;28;20202;-87
2022/07/09 03:23:06;;;;;;;6.03;4.00;;;10.70;99.90;;;;;;5119409;28;20558;-87
2022/07/09 03:25:32;;;;;;;4.63;3.93;;;10.70;99.90;;;;;;5119741;28;20182;-87
2022/07/09 03:27:58;;;;;;;4.43;3.23;;;10.70;99.90;;;;;;5118957;28;20549;-87
2022/07/09 03:30:23;;;;;;;8.50;4.03;;;10.70;99.90;;;;;;5120898;28;20645;-87
2022/07/09 03:32:50;;;;;;;5.00;3.80;;;10.70;99.90;;;;;;5120488;28;20258;-87
2022/07/09 03:35:16;;;;;;;8.27;3.83;;;10.70;99.90;;;;;;5120641;28;20647;-87
2022/07/09 03:37:42;;;;;;;3.47;3.07;;;10.70;99.90;;;;;;5125206;28;20190;-87
2022/07/09 03:40:08;;;;;;;6.60;3.40;;;10.80;99.90;;;;;;5125772;28;20302;-87
2022/07/09 03:42:34;;;;;;;8.23;3.70;;;10.80;99.90;;;;;;5127546;28;20210;-87
2022/07/09 03:44:59;;;;;;;5.13;3.80;;;10.80;99.90;;;;;;5127375;28;20183;-87
2022/07/09 03:47:25;;;;;;;8.63;4.07;;;10.80;99.90;;;;;;5128222;28;20203;-86
2022/07/09 03:49:51;;;;;;;3.83;3.43;;;10.80;99.90;;;;;;5129159;28;20175;-87
2022/07/09 03:52:16;;;;;;;5.67;3.63;;;10.80;99.90;;;;;;5127985;28;20201;-87
2022/07/09 03:54:42;;;;;;;5.57;3.63;;;10.80;99.90;;;;;;5127315;28;20241;-87
2022/07/09 03:57:08;;;;;;;8.37;3.70;;;10.90;99.90;;;;;;5128263;28;20178;-87
2022/07/09 03:59:33;;;;;;;6.23;3.40;;;10.90;99.90;;;;;;5130951;28;20280;-87
2022/07/09 04:01:59;;;;;;;7.07;3.13;;;10.90;99.90;;;;;;5141799;28;20263;-86
2022/07/09 04:04:25;;;;;;;4.10;3.53;;;10.90;99.90;;;;;;5138624;28;20195;-86
2022/07/09 04:06:50;;;;;;;5.17;3.67;;;11.00;99.90;;;;;;5138972;28;20207;-86
2022/07/09 04:09:16;;;;;;;5.63;3.30;;;11.00;99.90;;;;;;5135085;28;20176;-86
2022/07/09 04:11:42;;;;;;;4.20;3.30;;;11.10;99.90;;;;;;5128792;28;20701;-86
2022/07/09 04:14:07;;;;;;;5.67;3.20;;;11.10;99.90;;;;;;5121366;28;20179;-86
2022/07/09 04:16:33;;;;;;;5.20;3.20;;;11.10;99.90;;;;;;5121352;28;20178;-86
2022/07/09 04:18:59;;;;;;;8.70;3.80;;;11.10;99.90;;;;;;5120309;28;20183;-86
2022/07/09 04:21:25;;;;;;;5.33;3.23;;;11.10;99.90;;;;;;5122286;28;20197;-86
2022/07/09 04:23:51;;;;;;;4.33;3.37;;;11.10;99.90;;;;;;5121021;28;20215;-86
2022/07/09 04:26:20;;;;;;;6.07;3.83;;;11.20;99.90;;;;;;5121105;28;20211;-86
2022/07/09 04:28:46;;;;;;;4.40;3.23;;;11.20;99.90;;;;;;5121901;28;20169;-86
2022/07/09 04:31:12;;;;;;;5.97;3.93;;;11.20;99.90;;;;;;5121896;28;20167;-86
2022/07/09 04:33:38;;;;;;;6.37;3.80;;;11.30;99.90;;;;;;5120480;28;20685;-86
2022/07/09 04:36:04;;;;;;;4.60;3.93;;;11.30;99.90;;;;;;5120773;28;20175;-87
2022/07/09 04:38:30;;;;;;;6.80;3.50;;;11.30;99.90;;;;;;5121567;28;20566;-86
2022/07/09 04:40:56;;;;;;;8.33;3.90;;;11.30;99.90;;;;;;5121593;28;20181;-86
2022/07/09 04:43:22;;;;;;;5.27;3.50;;;11.40;99.90;;;;;;5119928;28;20271;-86
2022/07/09 04:45:47;;;;;;;3.60;3.10;;;11.50;99.90;;;;;;5120351;28;20652;-86
2022/07/09 04:48:13;;;;;;;5.93;3.20;;;11.50;99.90;;;;;;5119822;28;20168;-86
2022/07/09 04:50:39;;;;;;;4.20;3.40;;;11.50;99.90;;;;;;5119872;28;20225;-86
2022/07/09 04:53:05;;;;;;;6.63;3.33;;;11.60;99.90;;;;;;5120416;28;20220;-86
2022/07/09 04:55:30;;;;;;;7.33;3.77;;;11.60;99.90;;;;;;5120372;28;20175;-86
2022/07/09 04:57:56;;;;;;;4.50;3.53;;;11.60;99.90;;;;;;5119725;28;20746;-86
2022/07/09 05:00:22;;;;;;;7.47;3.90;;;11.70;99.90;;;;;;5119564;28;20178;-86
2022/07/09 05:02:48;;;;;;;6.73;3.53;;;11.70;99.90;;;;;;5119466;28;20207;-86
2022/07/09 05:05:13;;;;;;;4.27;3.23;;;11.70;99.90;;;;;;5119964;28;20175;-86
2022/07/09 05:07:40;;;;;;;5.60;3.17;;;11.80;99.90;;;;;;5121013;28;20177;-86
2022/07/09 05:10:07;;;;;;;6.80;3.40;;;11.70;99.90;;;;;;5119662;28;20205;-86
2022/07/09 05:12:32;;;;;;;4.37;3.30;;;11.80;99.90;;;;;;5118962;28;20271;-86
2022/07/09 05:15:01;;;;;;;5.93;3.50;;;11.80;99.90;;;;;;5119419;28;20649;-86
2022/07/09 05:17:27;;;;;;;4.73;3.30;;;11.90;99.90;;;;;;5119861;28;20174;-86
2022/07/09 05:19:52;;;;;;;5.27;3.27;;;11.90;99.90;;;;;;5117680;28;20179;-86
2022/07/09 05:22:18;;;;;;;6.17;3.67;;;11.90;99.90;;;;;;5118772;28;20684;-86
2022/07/09 05:24:44;;;;;;;7.43;3.90;;;11.90;99.90;;;;;;5117326;28;20179;-86
2022/07/09 05:27:09;;;;;;;5.33;3.00;;;12.00;99.90;;;;;;5119558;28;20179;-86
2022/07/09 05:29:38;;;;;;;6.37;3.20;;;12.10;99.90;;;;;;5121267;28;20175;-86
2022/07/09 05:32:05;;;;;;;4.63;3.20;;;12.10;99.90;;;;;;5121344;28;20206;-86
2022/07/09 05:34:30;;;;;;;5.03;3.23;;;12.10;99.90;;;;;;5122068;28;20175;-86
2022/07/09 05:36:56;;;;;;;6.27;3.33;;;12.20;99.90;;;;;;5123414;28;20633;-87
2022/07/09 05:39:22;;;;;;;7.00;3.57;;;12.30;99.90;;;;;;5122166;28;20187;-86
2022/07/09 05:41:48;;;;;;;4.70;3.30;;;12.40;99.90;;;;;;5120788;28;20202;-86
2022/07/09 05:44:15;;;;;;;5.60;2.60;;;12.50;99.90;;;;;;5121712;28;20223;-86
2022/07/09 05:46:41;;;;;;;5.33;2.93;;;12.60;99.90;;;;;;5121885;28;20647;-86
2022/07/09 05:49:07;;;;;;;5.13;3.10;;;12.70;99.90;;;;;;5121899;28;20175;-86
2022/07/09 05:51:33;;;;;;;3.63;3.07;;;12.80;99.90;;;;;;5123252;28;20245;-87
2022/07/09 05:53:59;;;;;;;5.40;2.40;;;12.90;99.90;;;;;;5123292;28;20652;-86
2022/07/09 05:56:26;;;;;;;6.73;2.87;;;12.90;99.90;;;;;;5125899;28;20224;-86
2022/07/09 05:58:52;;;;;;;5.03;2.87;;;13.00;99.90;;;;;;5125098;28;20633;-86
2022/07/09 06:01:18;;;;;;;4.10;3.03;;;13.10;99.90;;;;;;5127391;28;20168;-86
2022/07/09 06:03:43;;;;;;;7.60;2.53;;;13.20;99.90;;;;;;5122516;28;20228;-84
2022/07/09 06:06:10;;;;;;;7.80;3.17;;;13.20;99.90;;;;;;5120968;28;20175;-85
2022/07/09 06:08:36;;;;;;;3.47;2.60;;;13.30;99.90;;;;;;5128404;28;20172;-83
2022/07/09 06:11:02;;;;;;;3.53;2.50;;;13.50;99.90;;;;;;5134327;28;20204;-83
2022/07/09 06:13:28;;;;;;;5.53;2.80;;;13.60;99.90;;;;;;5127886;28;20206;-84
2022/07/09 06:15:54;;;;;;;6.10;2.33;;;13.70;99.90;;;;;;5119662;28;20179;-84
2022/07/09 06:18:20;;;;;;;4.97;2.80;;;13.80;99.90;;;;;;5119023;28;20628;-83
2022/07/09 06:20:46;;;;;;;3.57;2.57;;;14.00;99.90;;;;;;5117051;28;20243;-85
2022/07/09 06:23:12;;;;;;;3.03;1.90;;;14.00;99.90;;;;;;5116850;28;20242;-84
2022/07/09 06:25:38;;;;;;;6.90;2.17;;;14.10;99.90;;;;;;5116859;28;20624;-83
2022/07/09 06:28:05;;;;;;;5.23;2.30;;;14.20;99.90;;;;;;5116899;28;20202;-83
2022/07/09 06:30:32;;;;;;;4.80;2.30;;;14.30;99.90;;;;;;5117448;28;20179;-83
2022/07/09 06:32:58;;;;;;;3.57;2.23;;;14.50;99.90;;;;;;5117361;28;20547;-84
2022/07/09 06:35:24;;;;;;;4.07;2.27;;;;;;;;;;5116386;28;20685;-84
2022/07/09 06:37:50;;;;;;;3.80;2.10;;;14.70;99.90;;;;;;5117181;28;20203;-84
2022/07/09 06:40:15;;;;;;;6.83;3.10;;;14.80;99.90;;;;;;5118322;28;20236;-84
2022/07/09 06:42:42;;;;;;;4.10;1.60;;;;;;;;;;5118339;28;20320;-83
2022/07/09 06:45:08;;;;;;;4.23;1.70;;;15.00;99.90;;;;;;5120400;28;20254;-82
2022/07/09 06:47:34;;;;;;;4.57;1.83;;;15.20;99.90;;;;;;5119201;28;20183;-83
2022/07/09 06:50:00;;;;;;;3.23;1.83;;;15.20;99.90;;;;;;5118999;28;20262;-82
2022/07/09 06:52:27;;;;;;;2.20;1.70;;;;;;;;;;5120432;28;20207;-83
2022/07/09 06:54:53;;;;;;;2.53;1.13;;;15.50;99.90;;;;;;5121473;28;20179;-83
2022/07/09 06:57:19;;;;;;;4.30;1.87;;;15.60;99.90;;;;;;5119494;28;20183;-83
2022/07/09 06:59:48;;;;;;;3.13;1.37;;;;;;;;;;5122674;28;20193;-82
2022/07/09 07:02:16;;;;;;;4.50;1.50;;;16.00;99.90;;;;;;5127302;28;20198;-83
2022/07/09 07:04:42;;;;;;;3.37;1.37;;;16.10;99.90;;;;;;5130483;28;20182;-82
2022/07/09 07:07:08;;;;;;;2.90;1.30;;;16.30;99.90;;;;;;5131749;28;20195;-83
2022/07/09 07:09:34;;;;;;;3.77;1.30;;;16.40;99.90;;;;;;5123300;28;20187;-83
2022/07/09 07:11:59;;;;;;;2.13;1.50;;;16.50;99.90;;;;;;5120084;28;20463;-83
2022/07/09 07:14:25;;;;;;;4.70;1.40;;;;;;;;;;5120630;28;20648;-83
2022/07/09 07:16:52;;;;;;;2.10;1.10;;;16.60;99.90;;;;;;5120743;28;20207;-83
2022/07/09 07:19:20;;;;;;;2.80;1.00;;;16.60;99.90;;;;;;5120762;28;20268;-83
2022/07/09 07:21:46;;;;;;;3.20;1.40;;;16.70;99.90;;;;;;5122379;28;20199;-83
2022/07/09 07:24:13;;;;;;;4.23;1.23;;;16.80;99.90;;;;;;5122426;28;20206;-83
2022/07/09 07:26:38;;;;;;;5.50;1.40;;;16.80;99.90;;;;;;5121461;28;20205;-84
2022/07/09 07:29:05;;;;;;;1.73;1.13;;;;;;;;;;5121730;28;20249;-83
2022/07/09 07:31:31;;;;;;;3.63;1.10;;;;;;;;;;5121222;28;20668;-85
2022/07/09 07:33:57;;;;;;;3.93;1.40;;;16.90;99.90;;;;;;5122474;28;20178;-85
2022/07/09 07:36:23;;;;;;;2.20;1.17;;;;;;;;;;5120651;28;20206;-84
2022/07/09 07:38:49;;;;;;;5.30;1.70;;;17.10;99.90;;;;;;5120132;28;20196;-84
2022/07/09 07:41:16;;;;;;;3.63;1.50;;;;;;;;;;5120564;28;20230;-84
2022/07/09 07:43:42;;;;;;;3.90;1.67;;;17.30;99.90;;;;;;5118501;28;20294;-85
2022/07/09 07:46:08;;;;;;;8.10;1.27;;;;;;;;;;5117942;28;20203;-84
2022/07/09 07:48:37;;;;;;;1.90;1.20;;;17.50;99.90;;;;;;5118220;28;20555;-85
2022/07/09 07:51:03;;;;;;;5.07;1.20;;;17.60;99.90;;;;;;5125960;28;20267;-84
2022/07/09 07:53:32;;;;;;;1.97;1.27;;;17.80;99.90;;;;;;5122485;28;20275;-85
2022/07/09 07:56:00;;;;;;;2.50;1.13;;;17.90;99.90;;;;;;5121426;28;20179;-85
2022/07/09 07:58:26;;;;;;;2.77;1.10;;;18.00;99.90;;;;;;5121646;28;20183;-85
2022/07/09 08:00:52;;;;;;;4.73;1.00;;;18.10;99.90;;;;;;5122153;28;20181;-84
2022/07/09 08:03:17;;;;;;;2.47;1.03;;;18.20;99.90;;;;;;5128102;28;20236;-85
2022/07/09 08:05:43;;;;;;;2.57;1.00;;;18.20;99.90;;;;;;5127375;28;20180;-86
2022/07/09 08:08:09;;;;;;;6.53;1.30;;;;;;;;;;5127945;28;20180;-85
2022/07/09 08:10:35;;;;;;;5.17;1.90;;;18.20;99.90;;;;;;5129570;28;20177;-86
2022/07/09 08:13:01;;;;;;;3.20;1.20;;;;;;;;;;5131638;28;20274;-85
2022/07/09 08:15:26;;;;;;;2.00;1.17;;;18.40;99.90;;;;;;5131210;28;20250;-86
2022/07/09 08:17:53;;;;;;;3.97;1.30;;;18.40;99.90;;;;;;5131904;28;20692;-85
2022/07/09 08:20:19;;;;;;;2.33;1.10;;;18.50;99.90;;;;;;5123954;28;20185;-86
2022/07/09 08:22:45;;;;;;;4.13;1.37;;;18.70;99.90;;;;;;5122003;28;20204;-84
2022/07/09 08:25:13;;;;;;;2.63;1.20;;;18.80;99.90;;;;;;5121236;28;20189;-85
2022/07/09 08:27:40;;;;;;;2.40;1.70;;;19.00;99.90;;;;;;5121021;28;20218;-84
2022/07/09 08:30:06;;;;;;;4.57;1.50;;;19.10;99.90;;;;;;5120931;28;20181;-85
2022/07/09 08:32:32;;;;;;;4.60;1.63;;;19.20;99.90;;;;;;5119843;28;20205;-84
2022/07/09 08:34:58;;;;;;;4.07;1.80;;;19.30;99.90;;;;;;5119822;28;20179;-85
2022/07/09 08:37:23;;;;;;;4.53;1.90;;;19.50;99.90;;;;;;5120658;28;20190;-85
2022/07/09 08:39:49;;;;;;;3.77;1.60;;;19.70;99.90;;;;;;5119670;28;20538;-85
2022/07/09 08:42:16;;;;;;;2.67;1.17;;;19.80;99.90;;;;;;5119184;28;20200;-84
2022/07/09 08:44:46;;;;;;;2.70;1.40;;;19.90;99.90;;;;;;5119145;28;20521;-84
2022/07/09 08:47:13;;;;;;;3.43;1.40;;;20.00;99.90;;;;;;5120619;28;20181;-85
2022/07/09 08:49:39;;;;;;;3.53;1.50;;;20.20;99.90;;;;;;5120125;28;20220;-84
2022/07/09 08:52:06;;;;;;;3.90;1.10;;;20.30;99.90;;;;;;5119641;28;20665;-83
2022/07/09 08:54:39;;;;;;;5.93;1.40;;;20.50;99.90;;;;;;5118879;28;20190;-84
2022/07/09 08:57:05;;;;;;;2.77;1.20;;;20.60;99.90;;;;;;5118964;28;20171;-84
2022/07/09 08:59:32;;;;;;;5.13;1.37;;;20.70;99.90;;;;;;5118539;28;20237;-84
2022/07/09 09:01:57;;;;;;;5.03;1.63;;;20.80;99.90;;;;;;5120499;28;20214;-84
2022/07/09 09:04:24;;;;;;;5.43;1.83;;;20.90;99.90;;;;;;5120355;28;20653;-84
2022/07/09 09:06:50;;;;;;;3.07;1.30;;;21.00;99.90;;;;;;5119146;28;20180;-85
2022/07/09 09:09:19;;;;;;;3.43;1.30;;;21.20;99.90;;;;;;5118641;28;20180;-85
2022/07/09 09:11:49;;;;;;;3.10;1.20;;;21.00;99.90;;;;;;5118898;28;20198;-86
2022/07/09 09:14:22;;;;;;;5.07;1.67;;;21.00;99.90;;;;;;5119506;28;20262;-85
2022/07/09 09:16:49;;;;;;;3.37;1.63;;;21.00;99.90;;;;;;5118217;28;20232;-85
2022/07/09 09:19:14;;;;;;;3.10;1.40;;;21.00;99.90;;;;;;5118488;28;20175;-85
2022/07/09 09:21:40;;;;;;;2.33;1.40;;;21.20;99.90;;;;;;5119309;28;20179;-85
2022/07/09 09:24:06;;;;;;;2.77;1.63;;;21.20;99.90;;;;;;5118752;28;20215;-85
2022/07/09 09:26:35;;;;;;;2.57;1.40;;;21.20;99.90;;;;;;5120392;28;20171;-85
2022/07/09 09:29:03;;;;;;;2.10;1.07;;;21.30;99.90;;;;;;5119465;28;20207;-85
2022/07/09 09:31:33;;;;;;;5.33;1.33;;;21.60;99.90;;;;;;5120111;28;20651;-84
2022/07/09 09:34:15;;;;;;;2.37;1.20;;;21.80;99.90;;;;;;5118574;28;20181;-84
2022/07/09 09:36:50;;;;;;;3.43;1.40;;;21.70;99.90;;;;;;5120451;28;20234;-84
2022/07/09 09:39:35;;;;;;;3.03;1.13;;;21.80;99.90;;;;;;5120808;28;20194;-84
2022/07/09 09:42:02;;;;;;;2.63;1.50;;;22.10;99.90;;;;;;5120078;28;20241;-85
2022/07/09 09:44:32;;;;;;;2.60;1.03;;;22.30;99.90;;;;;;5119863;28;20692;-86
2022/07/09 09:46:58;;;;;;;4.30;1.33;;;22.50;99.90;;;;;;5120563;28;20190;-85
2022/07/09 09:49:25;;;;;;;5.40;1.27;;;22.70;99.90;;;;;;5120127;28;20556;-85
2022/07/09 09:51:54;;;;;;;3.30;1.27;;;22.70;99.90;;;;;;5120379;28;20196;-86
2022/07/09 09:54:21;;;;;;;2.13;1.13;;;22.60;99.90;;;;;;5121888;28;20211;-85
2022/07/09 09:56:48;;;;;;;4.30;1.23;;;22.50;99.90;;;;;;5121834;28;20253;-85
2022/07/09 09:59:14;;;;;;;2.37;1.07;;;22.30;99.90;;;;;;5121365;28;20522;-85
2022/07/09 10:01:41;;;;;;;3.10;1.30;;;22.40;99.90;;;;;;5124558;28;20327;-86
2022/07/09 10:04:09;;;;;;;2.53;1.20;;;22.30;99.90;;;;;;5127580;28;20256;-84
2022/07/09 10:06:35;;;;;;;4.20;1.20;;;;;;;;;;5119220;28;20228;-85
2022/07/09 10:09:03;;;;;;;2.13;1.00;;;22.50;99.90;;;;;;5117129;28;20183;-85
2022/07/09 10:11:44;;;;;;;3.17;1.57;;;22.10;99.90;;;;;;5116596;28;20224;-85
2022/07/09 10:14:24;;;;;;;1.93;1.00;;;22.10;99.90;;;;;;5116537;28;20175;-84
2022/07/09 10:16:54;;;;;;;2.87;1.10;;;21.80;99.90;;;;;;5116259;28;20209;-84
2022/07/09 10:19:30;;;;;;;3.03;0.77;;;21.40;99.90;;;;;;5122342;28;20235;-85
2022/07/09 10:21:57;;;;;;;3.73;1.10;;;21.10;99.90;;;;;;5121134;28;20682;-85
2022/07/09 10:24:28;;;;;;;2.00;1.07;;;21.10;99.90;;;;;;5123471;28;20301;-85
2022/07/09 10:27:12;;;;;;;2.20;1.00;;;21.40;99.90;;;;;;5122110;28;20162;-84
2022/07/09 10:29:57;;;;;;;2.33;1.13;;;21.90;99.90;;;;;;5119258;28;20183;-85
2022/07/09 10:32:32;;;;;;;2.17;1.30;;;22.60;99.90;;;;;;5119759;28;20204;-84
2022/07/09 10:35:02;;;;;;;2.67;1.17;;;22.80;99.90;;;;;;5122108;28;20183;-85
2022/07/09 10:37:34;;;;;;;2.67;1.20;;;23.10;99.90;;;;;;5121849;28;20172;-85
2022/07/09 10:40:13;;;;;;;6.43;1.17;;;23.30;99.90;;;;;;5121765;28;20679;-86
2022/07/09 10:42:41;;;;;;;1.43;0.80;;;23.40;99.90;;;;;;5120380;28;20218;-85
2022/07/09 10:45:20;;;;;;;1.80;0.90;;;23.60;99.90;;;;;;5122801;28;20632;-86
2022/07/09 10:48:00;;;;;;;1.47;0.90;;;23.80;99.90;;;;;;5127415;28;20189;-86
2022/07/09 10:50:30;;;;;;;2.50;0.83;;;24.00;99.90;;;;;;5127337;28;20163;-86
2022/07/09 10:52:56;;;;;;;1.40;0.83;;;23.50;95.30;;;;;;5127769;27;20195;-85
2022/07/09 10:55:24;;;;;;;2.30;1.10;;;23.10;96.20;;;;;;5126506;28;20193;-85
2022/07/09 10:57:50;;;;;;;2.20;1.10;;;;;;;;;;5124998;28;20187;-85
2022/07/09 11:00:16;;;;;;;2.40;1.27;;;23.60;99.90;;;;;;5125494;28;20183;-87
2022/07/09 11:02:57;;;;;;;1.00;0.67;;;23.70;99.90;;;;;;5126069;28;20219;-86
2022/07/09 11:05:25;;;;;;;1.40;1.00;;;24.00;99.90;;;;;;5127534;28;20182;-87
2022/07/09 11:07:59;;;;;;;1.13;0.80;;;24.30;98.30;;;;;;5127908;27;20176;-86
2022/07/09 11:10:26;;;;;;;2.57;0.93;;;24.60;99.90;;;;;;5127773;28;20643;-85
2022/07/09 11:12:53;;;;;;;0.93;0.60;;;24.80;96.50;;;;;;5128500;28;20203;-86
2022/07/09 11:15:21;;;;;;;1.37;0.70;;;24.90;95.80;;;;;;5130495;27;20175;-85
2022/07/09 11:18:06;;;;;;;1.10;0.70;;;25.20;99.90;;;;;;5128915;28;20188;-85
2022/07/09 11:20:37;;;;;;;1.63;0.80;;;24.80;91.60;;;;;;5129422;28;20163;-85
2022/07/09 11:23:02;;;;;;;2.47;1.00;;;24.70;99.90;;;;;;5131709;27;20204;-84
2022/07/09 11:25:29;;;;;;;1.37;0.83;;;25.00;97.80;;;;;;5130272;28;20183;-84
2022/07/09 11:27:56;;;;;;;1.13;0.70;;;25.30;94.00;;;;;;5129730;28;20283;-83
2022/07/09 11:30:22;;;;;;;2.57;0.87;;;25.60;97.80;;;;;;5128880;28;20199;-84
2022/07/09 11:32:48;;;;;;;1.00;0.60;;;25.00;94.00;;;;;;5128123;28;20692;-85
2022/07/09 11:35:28;;;;;;;3.90;0.80;;;24.60;91.10;;;;;;5127466;28;20285;-84
2022/07/09 11:37:55;;;;;;;0.63;0.63;;;24.30;93.10;;;;;;5127198;28;20218;-86
2022/07/09 11:40:21;;;;;;;2.07;1.00;;;24.60;95.40;;;;;;5128948;28;20187;-85
2022/07/09 11:42:49;;;;;;;0.90;0.60;;;25.00;93.50;;;;;;5129856;28;20281;-85
2022/07/09 11:45:15;;;;;;;2.93;0.83;;;;;;;;;;5129027;28;20248;-86
2022/07/09 11:47:41;;;;;;;1.07;0.60;;;25.50;88.60;;;;;;5126529;28;20176;-85
2022/07/09 11:50:20;;;;;;;2.07;0.80;;;25.60;94.90;;;;;;5124566;28;20174;-86
2022/07/09 11:52:49;;;;;;;2.93;1.07;;;24.90;90.60;;;;;;5124517;28;20761;-87
2022/07/09 11:55:28;;;;;;;2.87;0.80;;;24.60;91.30;;;;;;5127629;27;20169;-86
2022/07/09 11:57:58;;;;;;;1.40;0.80;;;23.80;91.50;;;;;;5122826;28;20205;-86
2022/07/09 12:00:29;;;;;;;2.63;0.93;;;23.30;91.80;;;;;;5120359;28;20201;-87
2022/07/09 12:02:57;;;;;;;1.57;0.73;;;22.90;93.30;;;;;;5122643;28;20329;-85
2022/07/09 12:05:39;;;;;;;1.53;0.90;;;23.10;94.00;;;;;;5120657;28;20171;-87
2022/07/09 12:08:07;;;;;;;1.03;0.80;;;23.40;94.20;;;;;;5120862;28;20173;-87
2022/07/09 12:10:37;;;;;;;2.67;0.90;;;24.70;93.50;;;;;;5121987;28;20647;-86
2022/07/09 12:13:05;;;;;;;1.40;0.80;;;24.70;90.00;;;;;;5119625;28;20557;-87
2022/07/09 12:15:31;;;;;;;3.20;1.27;;;;;;;;;;5122028;28;20668;-86
2022/07/09 12:18:00;;;;;;;1.67;0.70;;;24.60;88.50;;;;;;5122287;28;20664;-87
2022/07/09 12:20:28;;;;;;;3.43;1.27;;;24.50;89.30;;;;;;5121657;28;20211;-87
2022/07/09 12:22:54;;;;;;;2.00;0.77;;;;;;;;;;5120493;28;20721;-87
2022/07/09 12:25:21;;;;;;;1.60;0.73;;;;;;;;;;5122061;28;20174;-87
2022/07/09 12:27:47;;;;;;;1.43;0.77;;;24.80;94.10;;;;;;5120298;28;20192;-87
2022/07/09 12:30:13;;;;;;;2.10;0.87;;;24.70;94.40;;;;;;5124525;28;20188;-87
2022/07/09 12:32:40;;;;;;;2.23;0.90;;;24.70;94.20;;;;;;5122763;28;20199;-87
2022/07/09 12:35:06;;;;;;;1.13;0.80;;;24.80;96.10;;;;;;5131390;28;20183;-86
2022/07/09 12:37:34;;;;;;;4.40;1.10;;;24.80;96.90;;;;;;5120019;28;20276;-87
2022/07/09 12:40:00;;;;;;;2.10;0.80;;;24.90;94.50;;;;;;5117751;28;20225;-87
2022/07/09 12:42:26;;;;;;;1.93;0.80;;;25.40;92.90;;;;;;5117342;28;20199;-87
2022/07/09 12:44:52;;;;;;;1.50;0.80;;;25.50;91.90;;;;;;5117859;28;20176;-87
2022/07/09 12:47:18;;;;;;;1.87;0.80;;;25.90;95.40;;;;;;5118823;28;20274;-87
2022/07/09 12:49:44;;;;;;;1.07;0.80;;;26.10;91.70;;;;;;5119100;28;20207;-88
2022/07/09 12:52:09;;;;;;;2.50;0.87;;;26.50;92.70;;;;;;5123586;28;20203;-87
2022/07/09 12:54:35;;;;;;;1.30;0.80;;;26.30;92.00;;;;;;5123450;28;20315;-87